SBTESBPJ

Guest
Details From SBTE - Senador Petronio Portella
To SBPJ - Tocantins
Flight Number -
Tags generated
Created
Modified
Stats Distance 491 nm / 910 km
Max Altitude 34,000 ft / 10,363 m
Waypoints 8
Social Downloads 0
Likes 0
Share VATSIM

Download

Looking for another format? Having issues loading an existing format? Contact us
Advertisement - Login to hide

Notes

Basic altitude profile: - Ascent Rate: 2500ft/min - Ascent Speed: 250kts - Cruise Altitude: 35000ft - Cruise Speed: 420kts - Descent Rate: 1500ft/min - Descent Speed: 250kts Options: - Use NATs: yes - Use PACOTS: yes - Use low airways: yes - Use high airways: yes

Route

SBTE GUEST UZ5 BARKA 900S04500W ACENA LOVIS AZOIC SBPJ

ID Type Via Altitude Latitude Longitude Leg Dist Tot Dist Heading (true) Name
O SBTE APT - 0 ft / 0 m -5.05994˚ -42.82348˚ - 0 nm - Senador Petronio Portella
GUEST FIX - 14,400 ft / 4,389 m -5.67317˚ -43.10783˚ 40 nm 40 nm 205° / 205° -
BARKA FIX UZ5 (AWY-HI) 34,000 ft / 10,363 m -7.96283˚ -44.18167˚ 151 nm 192 nm 205° / 205° -
900S04500W LATLON - 34,000 ft / 10,363 m -9.00000˚ -45.00000˚ 79 nm 271 nm 218° / 218° -
ACENA FIX - 32,000 ft / 9,754 m -9.20517˚ -46.08583˚ 65 nm 336 nm 259° / 259° -
LOVIS FIX - 26,200 ft / 7,986 m -9.51800˚ -46.51717˚ 31 nm 368 nm 234° / 234° -
AZOIC FIX - 8,200 ft / 2,499 m -10.28683˚ -47.70800˚ 84 nm 452 nm 237° / 237° -
O SBPJ APT - 0 ft / 0 m -10.29152˚ -48.35697˚ 38 nm 491 nm 270° / 270° Tocantins

Altitude Profile

Advertisement - Login to hide

Weather


0- 5 10 15 20 25 30 35+ Temperature / ° C

Clouds and Precipitation
Forecast for 2018-06-25 18:00 UTC. Updated 2 hours ago

Ground ~20,000 ft ~40,000 ft Winds

SBTE

Details ICAO SBTE (THE)
Name Senador Petronio Portella
Region Brazil
Timezone America/Fortaleza (UTC-3.0)
Stats Elevation 219 ft / 67 m (AMSL)
Location -5.059940° -42.823478°
Runways 1
Magnetic Variation 21.543° W

METAR

SBTE 251700Z 14007KT CAVOK 32/15 Q1012

Decode

TAF

TAF SBTE 251000Z 2512/2524 13007KT CAVOK TN27/2512Z TX33/2518Z BECMG 2520/2521 31003KT RMK PEI

Decode

Departure Runways

ID Width Length Bearing (true) Bearing (mag) Surface Threshold Offset Overrun Length
02 148 ft / 45 m 7,246 ft / 2,209 m 354.11° 15.65° Asphalt 0 ft / 0 m 190 ft / 58 m
20 148 ft / 45 m 7,246 ft / 2,209 m 174.12° 195.66° Asphalt 0 ft / 0 m 190 ft / 58 m

SBPJ

Details ICAO SBPJ (PMW)
Name Tocantins
Region Brazil
Timezone America/Araguaina (UTC-3.0)
Stats Elevation 774 ft / 236 m (AMSL)
Location -10.291524° -48.356972°
Runways 1
Magnetic Variation 21.292° W

METAR

SBPJ 251700Z 10006G16KT 050V200 CAVOK 33/11 Q1014

Decode

TAF

TAF SBPJ 250800Z 2512/2524 12007KT CAVOK TX33/2518Z TN24/2523Z BECMG 2518/2520 13005KT RMK PDE

Decode

Destination Runways

ID Width Length Bearing (true) Bearing (mag) Surface Threshold Offset Overrun Length
14 148 ft / 45 m 8,194 ft / 2,497 m 124.06° 145.35° Asphalt 0 ft / 0 m 0 ft / 0 m
32 148 ft / 45 m 8,194 ft / 2,497 m 304.06° 325.35° Asphalt 0 ft / 0 m 0 ft / 0 m

Popular Alternatives